Time;durP1;ratioP1;P1;durP2;ratioP2;P2;SDS_P1;SDS_P2;PMS_P1;PMS_P2;Temp;Humidity;BMP_temperature;BMP_pressure;BME280_temperature;BME280_humidity;BME280_pressure;Samples;Min_cycle;Max_cycle;Signal;HPM_P1;HPM_P2
2022/04/22 00:02:15;;;;;;;6.97;3.75;;;;;;;;;;5029410;28;20236;-66
2022/04/22 00:04:41;;;;;;;6.78;3.33;;;;;;;;;;5027043;28;20182;-66
2022/04/22 00:07:06;;;;;;;6.65;3.70;;;;;;;;;;5028166;28;20189;-66
2022/04/22 00:09:31;;;;;;;6.18;3.78;;;;;;;;;;5025525;28;20259;-66
2022/04/22 00:11:57;;;;;;;4.72;3.67;;;;;;;;;;5025828;28;20233;-66
2022/04/22 00:14:22;;;;;;;8.88;3.67;;;;;;;;;;5026776;28;20201;-66
2022/04/22 00:16:48;;;;;;;7.90;4.43;;;;;;;;;;5017873;28;20177;-66
2022/04/22 00:19:13;;;;;;;7.72;3.88;;;;;;;;;;5030660;28;20185;-66
2022/04/22 00:21:41;;;;;;;6.95;3.75;;;;;;;;;;5025992;28;20194;-67
2022/04/22 00:24:07;;;;;;;7.75;4.28;;;;;;;;;;5017944;28;20174;-66
2022/04/22 00:26:33;;;;;;;7.38;5.05;;;;;;;;;;5020686;28;20182;-66
2022/04/22 00:28:58;;;;;;;7.28;4.45;;;;;;;;;;5012032;28;20781;-66
2022/04/22 00:31:23;;;;;;;8.18;4.68;;;;;;;;;;5021267;28;20206;-66
2022/04/22 00:33:48;;;;;;;10.32;5.30;;;;;;;;;;5028574;28;20186;-66
2022/04/22 00:36:14;;;;;;;9.50;5.60;;;;;;;;;;5024869;28;20190;-66
2022/04/22 00:38:39;;;;;;;9.20;5.78;;;;;;;;;;5028326;28;20194;-66
2022/04/22 00:41:05;;;;;;;10.15;5.15;;;;;;;;;;5026091;28;20190;-66
2022/04/22 00:43:42;;;;;;;9.40;5.50;;;;;;;;;;5021586;28;20182;-66
2022/04/22 00:46:07;;;;;;;11.05;6.15;;;;;;;;;;5019191;28;20181;-66
2022/04/22 00:48:32;;;;;;;12.32;5.70;;;;;;;;;;5029571;28;20201;-66
2022/04/22 00:50:58;;;;;;;10.43;6.03;;;;;;;;;;5021716;28;20213;-67
2022/04/22 00:53:25;;;;;;;11.23;5.60;;;;;;;;;;5014660;28;20240;-67
2022/04/22 00:55:51;;;;;;;12.15;5.78;;;;;;;;;;5015120;28;20369;-66
2022/04/22 00:58:16;;;;;;;9.45;6.22;;;;;;;;;;5026373;28;20286;-66
2022/04/22 01:00:41;;;;;;;12.65;6.75;;;;;;;;;;5020082;28;20182;-66
2022/04/22 01:03:07;;;;;;;12.57;6.30;;;;;;;;;;5025799;28;20216;-66
2022/04/22 01:11:02;;;;;;;11.77;6.68;;;;;;;;;;5020626;28;20197;-70
2022/04/22 01:13:28;;;;;;;11.25;6.57;;;;;;;;;;5028178;28;20661;-66
2022/04/22 01:15:53;;;;;;;10.43;6.45;;;;;;;;;;5027738;28;20190;-67
2022/04/22 01:18:19;;;;;;;9.68;6.40;;;;;;;;;;5024781;28;20190;-66
2022/04/22 01:20:44;;;;;;;11.02;6.97;;;;;;;;;;5026056;28;20612;-66
2022/04/22 01:23:10;;;;;;;11.55;7.15;;;;;;;;;;5027918;28;20755;-66
2022/04/22 01:25:36;;;;;;;13.98;6.95;;;;;;;;;;5027636;28;20261;-66
2022/04/22 01:28:02;;;;;;;12.77;6.78;;;;;;;;;;5028415;28;20186;-66
2022/04/22 01:30:27;;;;;;;9.80;6.38;;;;;;;;;;5017336;28;20193;-66
2022/04/22 01:32:55;;;;;;;11.55;7.53;;;;;;;;;;5015528;28;20174;-66
2022/04/22 01:35:21;;;;;;;11.80;7.43;;;;;;;;;;5027832;28;20800;-66
2022/04/22 01:37:47;;;;;;;10.43;7.03;;;;;;;;;;5022871;28;20194;-66
2022/04/22 01:40:13;;;;;;;12.82;6.68;;;;;;;;;;5022258;28;20208;-66
2022/04/22 01:42:38;;;;;;;9.10;6.68;;;;;;;;;;5027229;28;20181;-66
2022/04/22 01:45:05;;;;;;;11.27;7.57;;;;;;;;;;5028876;28;20185;-66
2022/04/22 01:47:31;;;;;;;9.45;7.47;;;;;;;;;;5024891;28;20276;-66
2022/04/22 01:49:56;;;;;;;10.90;7.32;;;;;;;;;;5018462;28;20282;-66
2022/04/22 01:52:23;;;;;;;10.45;7.40;;;;;;;;;;5015675;28;20212;-66
2022/04/22 01:54:52;;;;;;;10.45;7.13;;;;;;;;;;5015027;28;20197;-65
2022/04/22 01:57:18;;;;;;;11.77;7.78;;;;;;;;;;5027928;28;20284;-65
2022/04/22 01:59:44;;;;;;;11.07;7.30;;;;;;;;;;5020760;28;20189;-66
2022/04/22 02:02:10;;;;;;;11.90;8.48;;;;;;;;;;5022155;28;20498;-66
2022/04/22 02:04:36;;;;;;;11.20;7.75;;;;;;;;;;5027894;28;20182;-67
2022/04/22 02:07:01;;;;;;;12.20;7.70;;;;;;;;;;5016915;28;20190;-66
2022/04/22 02:09:27;;;;;;;13.40;8.02;;;;;;;;;;5027138;28;20285;-66
2022/04/22 02:11:53;;;;;;;11.57;7.80;;;;;;;;;;5025339;28;20186;-66
2022/04/22 02:14:19;;;;;;;11.32;7.93;;;;;;;;;;5026539;28;20235;-66
2022/04/22 02:16:44;;;;;;;15.13;8.15;;;;;;;;;;5022782;28;20197;-65
2022/04/22 02:19:09;;;;;;;9.93;7.20;;;;;;;;;;5023180;28;20652;-65
2022/04/22 02:21:35;;;;;;;12.25;7.93;;;;;;;;;;5026607;28;20251;-67
2022/04/22 02:24:00;;;;;;;10.63;7.93;;;;;;;;;;5024529;28;20854;-66
2022/04/22 02:26:25;;;;;;;12.38;7.97;;;;;;;;;;5024636;28;20188;-65
2022/04/22 02:28:51;;;;;;;12.48;7.70;;;;;;;;;;5014961;28;20194;-66
2022/04/22 02:31:16;;;;;;;12.25;7.55;;;;;;;;;;5027290;28;20690;-66
2022/04/22 02:33:42;;;;;;;11.50;7.95;;;;;;;;;;5024889;28;20266;-66
2022/04/22 02:36:08;;;;;;;10.27;8.18;;;;;;;;;;5024831;28;20177;-66
2022/04/22 02:38:34;;;;;;;11.18;7.60;;;;;;;;;;5026897;28;20240;-66
2022/04/22 02:46:28;;;;;;;13.23;8.15;;;;;;;;;;5020706;28;20237;-66
2022/04/22 02:48:58;;;;;;;10.73;6.85;;;;;;;;;;5021684;28;20233;-66
2022/04/22 02:51:23;;;;;;;13.02;7.90;;;;;;;;;;5021250;28;20190;-66
2022/04/22 02:53:49;;;;;;;16.00;8.15;;;;;;;;;;5017700;28;20189;-67
2022/04/22 02:56:17;;;;;;;11.55;7.85;;;;;;;;;;5020565;28;20174;-67
2022/04/22 02:58:43;;;;;;;13.93;8.10;;;;;;;;;;5010231;28;20559;-66
2022/04/22 03:01:08;;;;;;;13.23;8.23;;;;;;;;;;5017746;28;20190;-67
2022/04/22 03:03:33;;;;;;;12.70;8.10;;;;;;;;;;5023044;28;20236;-67
2022/04/22 03:05:59;;;;;;;13.88;8.20;;;;;;;;;;5023302;28;20186;-66
2022/04/22 03:08:24;;;;;;;11.65;7.60;;;;;;;;;;5014753;28;20198;-66
2022/04/22 03:10:50;;;;;;;10.38;7.65;;;;;;;;;;5016790;28;20200;-66
2022/04/22 03:13:16;;;;;;;15.10;8.00;;;;;;;;;;5011338;28;20232;-67
2022/04/22 03:15:42;;;;;;;12.47;8.47;;;;;;;;;;5010521;28;20178;-66
2022/04/22 03:18:08;;;;;;;13.05;8.43;;;;;;;;;;5025035;28;20261;-66
2022/04/22 03:20:33;;;;;;;11.57;8.13;;;;;;;;;;5027687;28;20185;-66
2022/04/22 03:22:59;;;;;;;14.18;9.02;;;;;;;;;;5023808;28;20546;-66
2022/04/22 03:25:24;;;;;;;15.13;8.32;;;;;;;;;;5030853;28;20787;-66
2022/04/22 03:27:51;;;;;;;16.23;8.50;;;;;;;;;;5028750;28;20188;-67
2022/04/22 03:30:17;;;;;;;13.60;8.07;;;;;;;;;;5030188;28;20205;-67
2022/04/22 03:32:43;;;;;;;13.57;8.80;;;;;;;;;;5024046;28;20549;-66
2022/04/22 03:35:08;;;;;;;11.77;8.50;;;;;;;;;;5024440;28;20170;-66
2022/04/22 03:37:33;;;;;;;14.47;8.63;;;;;;;;;;5026236;28;20182;-66
2022/04/22 03:39:59;;;;;;;15.17;8.47;;;;;;;;;;5027327;28;20174;-65
2022/04/22 03:42:25;;;;;;;16.00;9.27;;;;;;;;;;5024704;28;20194;-66
2022/04/22 03:44:50;;;;;;;16.80;8.80;;;;;;;;;;5023024;28;20650;-66
2022/04/22 03:47:16;;;;;;;15.80;8.80;;;;;;;;;;5024466;28;20182;-66
2022/04/22 03:49:41;;;;;;;13.63;8.63;;;;;;;;;;5029461;28;20194;-66
2022/04/22 03:52:07;;;;;;;12.90;9.30;;;;;;;;;;5020159;28;20185;-67
2022/04/22 03:54:32;;;;;;;16.87;9.67;;;;;;;;;;5025944;28;20182;-66
2022/04/22 03:59:41;;;;;;;14.17;10.23;;;;;;;;;;5025586;28;20214;-66
2022/04/22 04:02:07;;;;;;;19.13;10.50;;;;;;;;;;5023914;28;20280;-66
2022/04/22 04:04:33;;;;;;;20.07;11.23;;;;;;;;;;5027464;28;20205;-66
2022/04/22 04:06:58;;;;;;;21.67;10.80;;;;;;;;;;5024027;28;20221;-66
2022/04/22 04:17:50;;;;;;;23.03;12.80;;;;;;;;;;5025987;28;20190;-66
2022/04/22 04:23:14;;;;;;;23.73;13.80;;;;;;;;;;5028141;28;20478;-66
2022/04/22 04:25:41;;;;;;;27.60;14.33;;;;;;;;;;5027283;28;20178;-66
2022/04/22 04:28:09;;;;;;;29.90;15.30;;;;;;;;;;5025905;28;20189;-66
2022/04/22 04:30:36;;;;;;;29.17;13.87;;;;;;;;;;5022774;28;20214;-66
2022/04/22 04:33:02;;;;;;;27.70;13.83;;;;;;;;;;5028219;28;20657;-67
2022/04/22 04:35:28;;;;;;;31.63;15.43;;;;;;;;;;5025537;28;20215;-68
2022/04/22 04:37:53;;;;;;;29.67;15.53;;;;;;;;;;5026191;28;20194;-66
2022/04/22 04:40:18;;;;;;;31.87;15.03;;;;;;;;;;5023468;28;20268;-66
2022/04/22 04:42:43;;;;;;;29.03;16.00;;;;;;;;;;5026199;28;20306;-66
2022/04/22 04:45:09;;;;;;;32.03;15.90;;;;;;;;;;5024279;28;20653;-66
2022/04/22 04:47:40;;;;;;;31.13;16.00;;;;;;;;;;5025248;28;20204;-66
2022/04/22 04:50:06;;;;;;;28.93;16.07;;;;;;;;;;5027915;28;20210;-66
2022/04/22 04:52:31;;;;;;;31.03;16.23;;;;;;;;;;5024551;28;21642;-66
2022/04/22 04:54:57;;;;;;;29.30;15.10;;;;;;;;;;5024444;28;20190;-66
2022/04/22 04:57:23;;;;;;;30.73;15.67;;;;;;;;;;5025660;28;20185;-66
2022/04/22 04:59:48;;;;;;;24.33;14.67;;;;;;;;;;5024593;28;20196;-66
2022/04/22 05:02:14;;;;;;;32.20;15.07;;;;;;;;;;5023929;28;20182;-67
2022/04/22 05:04:39;;;;;;;31.60;15.23;;;;;;;;;;5027401;28;20633;-66
2022/04/22 05:07:04;;;;;;;31.30;15.37;;;;;;;;;;5025435;28;20182;-66
2022/04/22 05:09:30;;;;;;;26.63;14.97;;;;;;;;;;5024581;28;20793;-66
2022/04/22 05:11:55;;;;;;;29.00;14.73;;;;;;;;;;5024942;28;20184;-66
2022/04/22 05:14:20;;;;;;;30.13;14.63;;;;;;;;;;5023839;28;20204;-65
2022/04/22 05:16:46;;;;;;;24.17;13.53;;;;;;;;;;5026327;28;20188;-66
2022/04/22 05:19:11;;;;;;;27.90;12.97;;;;;;;;;;5021469;28;20179;-65
2022/04/22 05:21:37;;;;;;;28.40;14.10;;;;;;;;;;5022981;28;20182;-66
2022/04/22 05:24:02;;;;;;;27.90;14.00;;;;;;;;;;5013425;28;20232;-65
2022/04/22 05:26:27;;;;;;;24.00;12.23;;;;;;;;;;5015791;28;20220;-66
2022/04/22 05:28:53;;;;;;;22.23;12.10;;;;;;;;;;5014071;28;20256;-66
2022/04/22 05:34:02;;;;;;;26.67;11.57;;;;;;;;;;5021797;28;20212;-66
2022/04/22 05:36:27;;;;;;;17.20;11.00;;;;;;;;;;5019209;28;20289;-66
2022/04/22 05:38:52;;;;;;;27.70;11.63;;;;;;;;;;5019789;28;20257;-66
2022/04/22 05:41:18;;;;;;;22.53;11.47;;;;;;;;;;5025828;28;20551;-65
2022/04/22 05:43:43;;;;;;;21.20;10.70;;;;;;;;;;5014265;28;20214;-65
2022/04/22 05:46:09;;;;;;;27.37;10.57;;;;;;;;;;5026791;28;20189;-66
2022/04/22 05:48:34;;;;;;;18.90;10.43;;;;;;;;;;5025974;28;20209;-66
2022/04/22 05:50:59;;;;;;;16.47;9.17;;;;;;;;;;5025865;28;20182;-65
2022/04/22 05:53:25;;;;;;;18.57;9.90;;;;;;;;;;5027509;28;20731;-65
2022/04/22 05:55:50;;;;;;;16.17;9.40;;;;;;;;;;5024766;28;20541;-65
2022/04/22 05:58:15;;;;;;;15.87;8.97;;;;;;;;;;5021847;28;20210;-66
2022/04/22 06:00:41;;;;;;;19.37;9.20;;;;;;;;;;5025943;28;20178;-66
2022/04/22 06:03:07;;;;;;;18.43;8.93;;;;;;;;;;5023316;28;20711;-67
2022/04/22 06:05:32;;;;;;;17.00;8.57;;;;;;;;;;5018606;28;20613;-67
2022/04/22 06:10:49;;;;;;;18.53;9.07;;;;;;;;;;5023582;28;20792;-66
2022/04/22 06:13:14;;;;;;;17.70;7.90;;;;;;;;;;5025306;28;20230;-66
2022/04/22 06:15:40;;;;;;;14.50;8.50;;;;;;;;;;5026013;28;20174;-66
2022/04/22 06:18:05;;;;;;;13.50;8.20;;;;;;;;;;5026858;28;20228;-66
2022/04/22 06:20:31;;;;;;;13.80;7.83;;;;;;;;;;5023720;28;20313;-66
2022/04/22 06:22:57;;;;;;;15.50;7.82;;;;;;;;;;5025212;28;20182;-66
2022/04/22 06:25:23;;;;;;;15.23;8.03;;;;;;;;;;5026076;28;20200;-66
2022/04/22 06:27:48;;;;;;;16.33;7.40;;;;;;;;;;5022574;28;20631;-66
2022/04/22 06:30:18;;;;;;;16.92;7.32;;;;;;;;;;5021612;28;20213;-66
2022/04/22 06:32:46;;;;;;;11.35;7.25;;;;;;;;;;5023504;28;20528;-66
2022/04/22 06:35:13;;;;;;;16.58;7.45;;;;;;;;;;5023105;28;20500;-66
2022/04/22 06:37:41;;;;;;;12.85;7.10;;;;;;;;;;5021431;28;20623;-66
2022/04/22 06:45:47;;;;;;;10.30;7.13;;;;;;;;;;5024395;28;20247;-67
2022/04/22 06:48:30;;;;;;;11.23;6.40;;;;;;;;;;5024988;28;20209;-67
2022/04/22 06:50:56;;;;;;;12.70;7.00;;;;;;;;;;5023968;28;22034;-67
2022/04/22 06:53:22;;;;;;;12.45;6.20;;;;;;;;;;5024762;28;20181;-67
2022/04/22 06:55:48;;;;;;;11.38;7.00;;;;;;;;;;5028569;28;20695;-67
2022/04/22 06:58:18;;;;;;;9.80;6.28;;;;;;;;;;5027241;28;20194;-67
2022/04/22 07:00:45;;;;;;;11.95;6.50;;;;;;;;;;5028354;28;20584;-67
2022/04/22 07:03:12;;;;;;;14.40;7.18;;;;;;;;;;5026691;28;20264;-67
2022/04/22 07:05:38;;;;;;;8.95;5.88;;;;;;;;;;5029369;28;20182;-67
2022/04/22 07:08:06;;;;;;;17.27;6.50;;;;;;;;;;5027899;28;20213;-67
2022/04/22 07:10:35;;;;;;;11.30;6.38;;;;;;;;;;5028162;28;20262;-67
2022/04/22 07:13:00;;;;;;;12.93;6.05;;;;;;;;;;5027082;28;20221;-66
2022/04/22 07:15:27;;;;;;;9.68;5.72;;;;;;;;;;5027009;28;20683;-66
2022/04/22 07:17:53;;;;;;;10.88;6.10;;;;;;;;;;5028902;28;20183;-65
2022/04/22 07:20:19;;;;;;;10.23;5.90;;;;;;;;;;5028683;28;20201;-66
2022/04/22 07:22:45;;;;;;;14.48;5.88;;;;;;;;;;5026382;28;20181;-66
2022/04/22 07:25:12;;;;;;;9.93;5.57;;;;;;;;;;5029946;28;20248;-66
2022/04/22 07:27:40;;;;;;;11.68;5.13;;;;;;;;;;5021139;28;20187;-67
2022/04/22 07:30:08;;;;;;;12.45;5.30;;;;;;;;;;5025375;28;20202;-67
2022/04/22 07:32:37;;;;;;;9.52;5.40;;;;;;;;;;5027709;28;20202;-66
2022/04/22 07:35:04;;;;;;;12.55;5.00;;;;;;;;;;5024609;28;20210;-66
2022/04/22 07:37:29;;;;;;;9.25;4.75;;;;;;;;;;5016839;28;20324;-67
2022/04/22 07:39:55;;;;;;;11.00;5.25;;;;;;;;;;5023855;28;20456;-70
2022/04/22 07:42:21;;;;;;;10.30;5.28;;;;;;;;;;5027640;28;20182;-67
2022/04/22 07:47:34;;;;;;;7.68;4.43;;;;;;;;;;5027576;28;20201;-66
2022/04/22 07:50:05;;;;;;;8.02;4.78;;;;;;;;;;5026734;28;20637;-68
2022/04/22 07:52:34;;;;;;;8.95;4.55;;;;;;;;;;5027975;28;20212;-70
2022/04/22 07:55:00;;;;;;;9.45;4.45;;;;;;;;;;5028957;28;20269;-66
2022/04/22 07:57:27;;;;;;;8.68;4.60;;;;;;;;;;5029334;28;20261;-66
2022/04/22 07:59:52;;;;;;;9.88;4.45;;;;;;;;;;5027332;28;20178;-67
2022/04/22 08:02:18;;;;;;;7.30;5.07;;;;;;;;;;5023793;28;20182;-66
2022/04/22 08:04:44;;;;;;;9.82;4.25;;;;;;;;;;5025895;28;20265;-66
2022/04/22 08:07:09;;;;;;;11.02;4.93;;;;;;;;;;5022904;28;20190;-67
2022/04/22 08:09:35;;;;;;;9.43;4.50;;;;;;;;;;5024606;28;20573;-67
2022/04/22 08:12:00;;;;;;;7.53;4.55;;;;;;;;;;5026992;28;20233;-67
2022/04/22 08:14:27;;;;;;;15.63;4.40;;;;;;;;;;5027708;28;20304;-67
2022/04/22 08:16:55;;;;;;;8.57;4.70;;;;;;;;;;5027409;28;20178;-67
2022/04/22 08:19:21;;;;;;;7.82;3.95;;;;;;;;;;5028125;28;20178;-69
2022/04/22 08:21:46;;;;;;;6.38;3.70;;;;;;;;;;5026954;28;20212;-66
2022/04/22 08:24:12;;;;;;;6.63;3.95;;;;;;;;;;5022851;28;20190;-66
2022/04/22 08:26:39;;;;;;;6.82;4.32;;;;;;;;;;5028172;28;20189;-67
2022/04/22 08:29:04;;;;;;;7.65;4.05;;;;;;;;;;5028057;28;20198;-67
2022/04/22 08:31:29;;;;;;;5.20;3.28;;;;;;;;;;5029760;28;20209;-67
2022/04/22 08:33:57;;;;;;;6.93;3.75;;;;;;;;;;5028075;28;22811;-69
2022/04/22 08:36:30;;;;;;;5.85;3.95;;;;;;;;;;5017898;28;20194;-66
2022/04/22 08:38:59;;;;;;;6.15;3.60;;;;;;;;;;5024751;28;20544;-67
2022/04/22 08:41:25;;;;;;;7.18;4.15;;;;;;;;;;5028503;28;20514;-67
2022/04/22 08:43:51;;;;;;;6.68;3.30;;;;;;;;;;5022324;28;20270;-66
2022/04/22 08:51:47;;;;;;;4.25;3.05;;;;;;;;;;5018324;28;20184;-67
2022/04/22 08:54:14;;;;;;;4.78;2.85;;;;;;;;;;5026113;28;20259;-66
2022/04/22 08:56:40;;;;;;;8.02;3.00;;;;;;;;;;5014692;28;20182;-66
2022/04/22 08:59:06;;;;;;;7.53;3.22;;;;;;;;;;5028839;28;20182;-68
2022/04/22 09:01:31;;;;;;;5.05;3.40;;;;;;;;;;5029597;28;20227;-67
2022/04/22 09:03:57;;;;;;;7.40;2.83;;;;;;;;;;5024631;28;20258;-66
2022/04/22 09:06:26;;;;;;;6.30;3.08;;;;;;;;;;5025891;28;20273;-67
2022/04/22 09:08:56;;;;;;;8.60;3.38;;;;;;;;;;5028653;28;20606;-67
2022/04/22 09:11:22;;;;;;;3.97;2.78;;;;;;;;;;5028459;28;20193;-67
2022/04/22 09:13:47;;;;;;;7.25;2.90;;;;;;;;;;5028288;28;20776;-67
2022/04/22 09:16:22;;;;;;;7.28;2.83;;;;;;;;;;5028262;28;20185;-67
2022/04/22 09:18:57;;;;;;;4.43;2.80;;;;;;;;;;5022469;28;20689;-67
2022/04/22 09:21:24;;;;;;;6.38;2.72;;;;;;;;;;5019503;28;20189;-67
2022/04/22 09:23:49;;;;;;;6.35;3.10;;;;;;;;;;5026040;28;20544;-67
2022/04/22 09:26:26;;;;;;;10.02;3.40;;;;;;;;;;5019057;28;20179;-67
2022/04/22 09:28:57;;;;;;;5.75;2.78;;;;;;;;;;5023129;28;20224;-66
2022/04/22 09:31:23;;;;;;;6.07;2.60;;;;;;;;;;5018876;28;20584;-66
2022/04/22 09:33:50;;;;;;;4.25;2.53;;;;;;;;;;5023841;28;20196;-66
2022/04/22 09:44:57;;;;;;;4.50;2.78;;;;;;;;;;5012287;28;20193;-67
2022/04/22 09:47:28;;;;;;;3.47;2.13;;;;;;;;;;5022720;28;20182;-66
2022/04/22 09:49:54;;;;;;;3.38;1.95;;;;;;;;;;5016022;28;20405;-66
2022/04/22 09:52:31;;;;;;;3.90;1.98;;;;;;;;;;5027671;28;20716;-66
2022/04/22 09:55:01;;;;;;;5.10;1.80;;;;;;;;;;5028444;28;20185;-66
2022/04/22 09:57:47;;;;;;;2.95;1.95;;;;;;;;;;5022412;28;20229;-66
2022/04/22 10:00:15;;;;;;;4.45;1.92;;;;;;;;;;5026065;28;20186;-66
2022/04/22 10:02:40;;;;;;;4.05;2.35;;;;;;;;;;5022621;28;20185;-66
2022/04/22 10:05:07;;;;;;;7.78;2.50;;;;;;;;;;5025417;28;20186;-67
2022/04/22 10:07:33;;;;;;;3.13;2.10;;;;;;;;;;5028335;28;20186;-67
2022/04/22 10:10:02;;;;;;;3.20;1.95;;;;;;;;;;5025386;28;20213;-66
2022/04/22 10:12:30;;;;;;;3.90;2.30;;;;;;;;;;5027423;28;20260;-66
2022/04/22 10:14:57;;;;;;;4.50;1.98;;;;;;;;;;5024339;28;20182;-66
2022/04/22 10:17:23;;;;;;;3.97;2.28;;;;;;;;;;5009987;28;20231;-66
2022/04/22 10:19:53;;;;;;;8.38;2.22;;;;;;;;;;5028512;28;20279;-66
2022/04/22 10:22:19;;;;;;;4.32;2.05;;;;;;;;;;5026203;28;20174;-66
2022/04/22 10:24:46;;;;;;;2.20;1.70;;;;;;;;;;5020639;28;20183;-67
2022/04/22 10:27:13;;;;;;;2.97;1.65;;;;;;;;;;5011064;28;20672;-67
2022/04/22 10:29:40;;;;;;;4.15;2.10;;;;;;;;;;5027881;28;20521;-67
2022/04/22 10:32:07;;;;;;;2.13;1.75;;;;;;;;;;5026855;28;20662;-67
2022/04/22 10:34:43;;;;;;;6.70;2.00;;;;;;;;;;5022787;28;20192;-67
2022/04/22 10:37:25;;;;;;;2.60;1.95;;;;;;;;;;5019695;28;20193;-67
2022/04/22 10:39:52;;;;;;;3.83;1.90;;;;;;;;;;5024552;28;20174;-67
2022/04/22 10:42:17;;;;;;;3.53;2.20;;;;;;;;;;5017071;28;20580;-67
2022/04/22 10:47:42;;;;;;;6.72;2.20;;;;;;;;;;5025638;28;20549;-67
2022/04/22 10:50:30;;;;;;;3.80;2.00;;;;;;;;;;5024521;28;20202;-67
2022/04/22 10:53:02;;;;;;;5.32;2.05;;;;;;;;;;5019324;28;20690;-67
2022/04/22 10:55:28;;;;;;;4.28;2.28;;;;;;;;;;5025420;28;20586;-67
2022/04/22 10:58:20;;;;;;;3.40;1.90;;;;;;;;;;5024244;28;20231;-67
2022/04/22 11:00:57;;;;;;;3.47;2.35;;;;;;;;;;5016994;28;20186;-67
2022/04/22 11:03:31;;;;;;;3.90;1.88;;;;;;;;;;5023157;28;20194;-66
2022/04/22 11:06:01;;;;;;;3.22;2.05;;;;;;;;;;5026742;28;20186;-66
2022/04/22 11:08:40;;;;;;;3.92;1.95;;;;;;;;;;5027187;28;20281;-65
2022/04/22 11:11:32;;;;;;;8.05;2.67;;;;;;;;;;5014716;28;20178;-66
2022/04/22 11:14:23;;;;;;;4.25;2.03;;;;;;;;;;5017175;28;20980;-66
2022/04/22 11:16:49;;;;;;;5.68;1.83;;;;;;;;;;5023577;28;20197;-66
2022/04/22 11:19:17;;;;;;;4.03;2.13;;;;;;;;;;5026299;28;20269;-66
2022/04/22 11:21:44;;;;;;;2.47;2.08;;;;;;;;;;5024572;28;20584;-67
2022/04/22 11:24:19;;;;;;;4.57;1.95;;;;;;;;;;5026008;28;20254;-67
2022/04/22 11:26:45;;;;;;;4.30;2.08;;;;;;;;;;5019962;28;20385;-66
2022/04/22 11:29:12;;;;;;;4.32;2.38;;;;;;;;;;5024696;28;20264;-66
2022/04/22 11:31:38;;;;;;;4.20;2.40;;;;;;;;;;5025609;28;20427;-66
2022/04/22 11:34:43;;;;;;;3.67;2.08;;;;;;;;;;5025215;28;20200;-66
2022/04/22 11:37:22;;;;;;;2.95;1.98;;;;;;;;;;5010910;28;20597;-66
2022/04/22 11:39:48;;;;;;;6.93;2.15;;;;;;;;;;5026060;28;20182;-65
2022/04/22 11:42:17;;;;;;;4.95;2.63;;;;;;;;;;5009871;28;20662;-66
2022/04/22 11:45:01;;;;;;;3.95;2.53;;;;;;;;;;5028646;28;20189;-67
2022/04/22 11:47:28;;;;;;;5.10;2.60;;;;;;;;;;5019262;28;20654;-67
2022/04/22 11:49:54;;;;;;;6.97;2.53;;;;;;;;;;5030687;28;20209;-67
2022/04/22 11:52:20;;;;;;;4.20;2.67;;;;;;;;;;5019396;28;20534;-66
2022/04/22 11:54:46;;;;;;;4.30;2.63;;;;;;;;;;5022552;28;20201;-66
2022/04/22 11:57:12;;;;;;;7.25;2.60;;;;;;;;;;5022890;28;20204;-66
2022/04/22 11:59:38;;;;;;;5.65;2.33;;;;;;;;;;5030498;28;20178;-66
2022/04/22 12:10:26;;;;;;;4.72;2.83;;;;;;;;;;5025852;28;20340;-66
2022/04/22 12:12:54;;;;;;;5.30;2.63;;;;;;;;;;5028130;28;20265;-66
2022/04/22 12:15:20;;;;;;;5.00;2.83;;;;;;;;;;5027919;28;20644;-66
2022/04/22 12:17:46;;;;;;;7.10;3.03;;;;;;;;;;5028859;28;20166;-66
2022/04/22 12:20:13;;;;;;;4.47;3.15;;;;;;;;;;5029087;28;20475;-68
2022/04/22 12:22:39;;;;;;;3.83;2.78;;;;;;;;;;5028609;28;20179;-67
2022/04/22 12:25:11;;;;;;;5.97;3.20;;;;;;;;;;5029022;28;20182;-66
2022/04/22 12:27:37;;;;;;;5.53;2.90;;;;;;;;;;5023752;28;20209;-66
2022/04/22 12:30:10;;;;;;;5.53;3.17;;;;;;;;;;5027821;28;20822;-67
2022/04/22 12:32:40;;;;;;;4.30;3.08;;;;;;;;;;5027231;28;20202;-67
2022/04/22 12:35:13;;;;;;;6.43;3.22;;;;;;;;;;5026652;28;20175;-67
2022/04/22 12:37:52;;;;;;;4.60;3.33;;;;;;;;;;5028086;28;20205;-67
2022/04/22 12:40:19;;;;;;;5.35;3.67;;;;;;;;;;5027752;28;20174;-68
2022/04/22 12:42:45;;;;;;;5.80;3.25;;;;;;;;;;5027994;28;20190;-67
2022/04/22 12:53:37;;;;;;;5.53;3.35;;;;;;;;;;5027269;28;20332;-68
2022/04/22 12:56:04;;;;;;;6.68;3.53;;;;;;;;;;5026613;28;20548;-68
2022/04/22 12:58:30;;;;;;;4.93;3.22;;;;;;;;;;5028445;28;20213;-68
2022/04/22 13:00:56;;;;;;;7.55;3.78;;;;;;;;;;5028360;28;20743;-69
2022/04/22 13:03:21;;;;;;;4.50;3.33;;;;;;;;;;5024845;28;20198;-66
2022/04/22 13:05:50;;;;;;;4.57;3.60;;;;;;;;;;5027026;28;20733;-66
2022/04/22 13:08:16;;;;;;;7.90;3.50;;;;;;;;;;5028696;28;20199;-67
2022/04/22 13:10:42;;;;;;;7.18;3.75;;;;;;;;;;5027395;28;20464;-67
2022/04/22 13:13:08;;;;;;;5.40;3.88;;;;;;;;;;5028095;28;20639;-67
2022/04/22 13:15:34;;;;;;;6.63;3.80;;;;;;;;;;5028320;28;20182;-67
2022/04/22 13:17:59;;;;;;;5.07;3.90;;;;;;;;;;5024823;28;20930;-66
2022/04/22 13:20:25;;;;;;;9.85;3.65;;;;;;;;;;5025050;28;20181;-67
2022/04/22 13:22:50;;;;;;;6.10;3.72;;;;;;;;;;5027482;28;20719;-67
2022/04/22 13:25:17;;;;;;;8.02;4.13;;;;;;;;;;5027377;28;20174;-67
2022/04/22 13:27:44;;;;;;;11.65;4.75;;;;;;;;;;5026756;28;20228;-66
2022/04/22 13:30:10;;;;;;;6.20;3.80;;;;;;;;;;5026248;28;20650;-66
2022/04/22 13:32:36;;;;;;;5.93;3.75;;;;;;;;;;5023537;28;20233;-66
2022/04/22 13:35:04;;;;;;;7.88;4.10;;;;;;;;;;5024396;28;20240;-66
2022/04/22 13:37:31;;;;;;;7.07;4.10;;;;;;;;;;5024347;28;20195;-67
2022/04/22 13:39:56;;;;;;;7.10;3.90;;;;;;;;;;5022987;28;20224;-67
2022/04/22 13:42:22;;;;;;;6.90;3.80;;;;;;;;;;5024967;28;20182;-67
2022/04/22 13:52:58;;;;;;;6.68;3.80;;;;;;;;;;5025372;28;20197;-67
2022/04/22 13:55:24;;;;;;;5.63;4.05;;;;;;;;;;5024309;28;20190;-67
2022/04/22 13:57:49;;;;;;;7.75;3.88;;;;;;;;;;5023727;28;20189;-67
2022/04/22 14:00:15;;;;;;;5.88;3.67;;;;;;;;;;5025001;28;20552;-67
2022/04/22 14:02:40;;;;;;;8.23;4.40;;;;;;;;;;5020760;28;20235;-66
2022/04/22 14:05:06;;;;;;;6.80;4.28;;;;;;;;;;5021712;28;20186;-66
2022/04/22 14:07:31;;;;;;;6.32;4.00;;;;;;;;;;5022640;28;20178;-67
2022/04/22 14:10:00;;;;;;;6.05;4.03;;;;;;;;;;5020189;28;20213;-67
2022/04/22 14:12:25;;;;;;;5.70;4.38;;;;;;;;;;5023572;28;20569;-67
2022/04/22 14:14:53;;;;;;;6.93;4.13;;;;;;;;;;5024222;28;20190;-66
2022/04/22 14:17:19;;;;;;;10.15;4.05;;;;;;;;;;5024516;28;20512;-69
2022/04/22 14:19:48;;;;;;;6.05;4.32;;;;;;;;;;5024247;28;20182;-67
2022/04/22 14:22:13;;;;;;;10.07;4.70;;;;;;;;;;5021941;28;20182;-66
2022/04/22 14:24:40;;;;;;;6.60;5.10;;;;;;;;;;5022830;28;20738;-67
2022/04/22 14:27:07;;;;;;;6.63;4.45;;;;;;;;;;5023907;28;20546;-67
2022/04/22 14:29:36;;;;;;;8.32;4.05;;;;;;;;;;5021592;28;20206;-66
2022/04/22 14:32:03;;;;;;;6.10;4.15;;;;;;;;;;5023418;28;20206;-66
2022/04/22 14:34:28;;;;;;;9.35;4.70;;;;;;;;;;5025118;28;20177;-66
2022/04/22 14:36:54;;;;;;;7.55;4.43;;;;;;;;;;5021248;28;20277;-65
2022/04/22 14:39:19;;;;;;;7.90;5.00;;;;;;;;;;5024871;28;20541;-65
2022/04/22 14:41:48;;;;;;;7.15;4.70;;;;;;;;;;5025346;28;20197;-68
2022/04/22 14:44:14;;;;;;;9.45;4.85;;;;;;;;;;5026887;28;20261;-66
2022/04/22 14:46:41;;;;;;;7.38;4.43;;;;;;;;;;5026112;28;20280;-66
2022/04/22 14:49:06;;;;;;;11.90;4.65;;;;;;;;;;5023687;28;20209;-66
2022/04/22 14:51:32;;;;;;;8.48;3.97;;;;;;;;;;5026814;28;20182;-66
2022/04/22 14:53:57;;;;;;;6.82;4.32;;;;;;;;;;5021898;28;20275;-66
2022/04/22 14:56:23;;;;;;;9.90;4.72;;;;;;;;;;5019681;28;20182;-66
2022/04/22 14:58:51;;;;;;;6.25;4.35;;;;;;;;;;5022528;28;20218;-66
2022/04/22 15:01:17;;;;;;;7.43;4.25;;;;;;;;;;5023298;28;20174;-66
2022/04/22 15:03:43;;;;;;;7.07;4.25;;;;;;;;;;5021541;28;20193;-66
2022/04/22 15:06:09;;;;;;;10.18;4.70;;;;;;;;;;5024588;28;20202;-66
2022/04/22 15:08:34;;;;;;;7.45;4.82;;;;;;;;;;5023423;28;20182;-66
2022/04/22 15:11:00;;;;;;;6.28;4.53;;;;;;;;;;5014002;28;20174;-66
2022/04/22 15:13:25;;;;;;;5.75;4.60;;;;;;;;;;5027141;28;20221;-66
2022/04/22 15:15:51;;;;;;;5.90;4.40;;;;;;;;;;5028771;28;20186;-66
2022/04/22 15:26:28;;;;;;;10.85;4.88;;;;;;;;;;5021160;28;20202;-66
2022/04/22 15:28:53;;;;;;;9.13;4.95;;;;;;;;;;5023900;28;20194;-66
2022/04/22 15:31:19;;;;;;;8.30;4.50;;;;;;;;;;5018671;28;20727;-66
2022/04/22 15:33:45;;;;;;;8.13;4.68;;;;;;;;;;5023768;28;20193;-67
2022/04/22 15:36:12;;;;;;;6.78;4.57;;;;;;;;;;5019211;28;20182;-67
2022/04/22 15:38:41;;;;;;;7.45;5.15;;;;;;;;;;5028965;28;20190;-67
2022/04/22 15:41:08;;;;;;;9.32;4.97;;;;;;;;;;5028443;28;20662;-67
2022/04/22 15:43:38;;;;;;;7.03;4.75;;;;;;;;;;5021787;28;20273;-67
2022/04/22 15:46:04;;;;;;;6.57;4.63;;;;;;;;;;5026369;28;20182;-67
2022/04/22 15:48:29;;;;;;;8.00;4.80;;;;;;;;;;5030300;28;20193;-66
2022/04/22 15:50:54;;;;;;;8.93;5.13;;;;;;;;;;5026222;28;20322;-67
2022/04/22 15:53:20;;;;;;;7.20;4.55;;;;;;;;;;5023560;28;20692;-65
2022/04/22 15:55:46;;;;;;;5.43;4.13;;;;;;;;;;5027926;28;20269;-66
2022/04/22 15:58:11;;;;;;;7.68;4.18;;;;;;;;;;5020867;28;20240;-67
2022/04/22 16:00:37;;;;;;;8.50;4.55;;;;;;;;;;5029748;28;20182;-66
2022/04/22 16:03:02;;;;;;;7.10;4.65;;;;;;;;;;5025063;28;20289;-67
2022/04/22 16:05:28;;;;;;;7.88;5.03;;;;;;;;;;5027080;28;20194;-66